Terminal Aerodrome Forecast
Issued by NWS Sterling, VA

Current Version | Previous Version | Graphics & Text | Print | Product List | Glossary On
Versions: 1 2 3 4 5 6 7 8 9 10 11 12 13 14
917
FTUS41 KLWX 232327
TAFMRB
TAF
KMRB 232327Z 2400/2424 24006KT P6SM FEW035 BKN120
     FM240200 23004KT P6SM VCTS BKN060CB
     FM240400 VRB03KT P6SM BKN080
     FM241100 28005KT P6SM SCT250
     FM241400 30007KT P6SM SCT035=

USA.gov is the U.S. government's official web portal to all federal, state and local government web resources and services.